x

Frying Pan Shoals, Nc Buoy (41013) Wave Buoy

4:50pm - Thu 27th Nov 2014 All times are EST. -5 hours from GMT.

  • Sig Wave height 6.9ft
  • Swell Direction
  • Peak Period 7s
  • Average Period 5s
  • Wind
    27mph, 34mph gusts
  • Sea Temp 71°f
  • Air Temp 55°f
  • Sea Pressure 1019mb
  • Frying Pan Shoals, Nc Buoy
  • Frying Pan Shoals, Nc Buoy

More Historic Weather Station data

Upgrade to MSW Pro to gain access to the past 30 days of data for over 8000 Wavebouys and Weather Stations around the globe.

Join Pro

Comparision Forecast

View Surf forecast
   
Thu 11/27 4:50pm 7ft 7s 5s 27 34 mph 1019mb 71f 55f
3:50pm 7ft 6s 5s 27 36 mph 1017.7mb 71f 55f
2:50pm 6.5ft 7s 5s 29 36 mph 1016.9mb 71f 55f
1:50pm 6.5ft 7s 5s 27 34 mph 1016.6mb 71f 54f
12:50pm 7ft 6s 5s 25 36 mph 1016.6mb 71f 53f
11:50am 7ft 6s 5s 25 31 mph 1017mb 71f 54f
10:50am 7ft 6s 5s 29 36 mph 1017.5mb 71f 54f
9:50am 6.5ft 6s 5s 29 36 mph 1017.8mb 71f 56f
8:50am 6ft 5s 5s 31 38 mph 1017.1mb 71f 62f
7:50am 5.5ft 6s 5s 22 29 mph 1017.9mb 71f 61f
6:50am 5ft 6s 5s 20 27 mph 1018.3mb 70f 59f
5:50am 4.5ft 8s 5s 18 25 mph 1018.5mb 70f 59f
4:50am 4.5ft 7s 5s 18 25 mph 1018.5mb 70f 58f
3:50am 4.5ft 8s 5s 20 27 mph 1018.8mb 70f 59f
2:50am 3.5ft 9s 6s 13 22 mph 1019.2mb 71f 58f
1:50am 4ft 9s 6s 7 11 mph 1020mb 71f 55f
12:50am 4ft 7s 5s 7 11 mph 1019.5mb 71f 54f
Wed 11/26 11:50pm 4.5ft 9s 5s 11 16 mph 1019.7mb 71f 54f
10:50pm 5ft 5s 5s 13 18 mph 1019.9mb 71f 54f
9:50pm 5.5ft 6s 5s 16 22 mph 1019.2mb 71f 54f
8:50pm 6ft 5s 5s 20 27 mph 1018.7mb 71f 54f
7:50pm 6ft 6s 5s 22 31 mph 1018.3mb 71f 55f
6:50pm 6ft 5s 5s 22 27 mph 1017.5mb 71f 56f
5:50pm 6ft 6s 5s 22 27 mph 1016.3mb 71f 56f
4:50pm 7ft 6s 5s 25 29 mph 1015.5mb 70f 56f
3:50pm 7ft 5s 5s 25 29 mph 1014.3mb 71f 55f
2:50pm 7ft 6s 5s 27 34 mph 1013mb 71f 54f
1:50pm 7ft 7s 5s 25 31 mph 1012.6mb 71f 55f
12:50pm 7ft 8s 6s 18 22 mph 1011.4mb 71f 55f
11:50am 7.5ft 7s 5s 20 25 mph 1010.9mb 72f 57f
10:50am 8ft 8s 6s 25 29 mph 1009.9mb 72f 58f
9:50am 9ft 7s 6s 25 31 mph 1009.3mb 72f 61f
8:50am 9ft 7s 6s 29 38 mph 1007.1mb 72f 73f
7:50am 9ft 6s 5s 29 34 mph 1006.7mb 72f 75f
6:50am 9ft 6s 5s 29 36 mph 1007.3mb 71f 76f
5:50am 6.5ft 6s 5s 29 38 mph 1007.4mb 71f 76f
4:50am 6ft 5s 5s 22 27 mph 1007.5mb 71f 76f
3:50am 7.5ft 6s 5s 27 31 mph 1008.2mb 70f 74f
2:50am 6ft 5s 5s 31 38 mph 1007.7mb 70f 73f
1:50am 5ft 8s 5s 31 38 mph 1009.3mb 71f 72f
12:50am 4.5ft 8s 5s 22 29 mph 1012.2mb 71f 72f
Tue 11/25 11:50pm 4ft 9s 6s 18 22 mph 1014.5mb 71f 71f
10:50pm 3.5ft 9s 6s 11 13 mph 1015.9mb 71f 68f
9:50pm 3ft 9s 6s 9 11 mph 1016.9mb 70f 67f
8:50pm 3.5ft 9s 6s 7 11 mph 1017mb 70f 66f
7:50pm 3.5ft 8s 6s 7 9 mph 1018.1mb 70f 67f
6:50pm 3.5ft 8s 6s 11 13 mph 1017.5mb 70f 66f
5:50pm 3.5ft 8s 6s 11 13 mph 1017.4mb 70f 65f
4:50pm 3.5ft 8s 6s 7 9 mph 1016.7mb 69f 65f
3:50pm 3.5ft 8s 6s 7 9 mph 1017mb 69f 65f
2:50pm 3.5ft 9s 6s 7 9 mph 1016.8mb 69f 66f
1:50pm 4ft 9s 6s 7 9 mph 1017.2mb 70f 67f
12:50pm 4.5ft 9s 6s 13 16 mph 1017.2mb 70f 67f
11:50am 4.5ft 9s 5s 13 16 mph 1017.4mb 70f 67f
10:50am 4.5ft 9s 5s 16 20 mph 1017.7mb 70f 69f
9:50am 4.5ft 9s 5s 18 20 mph 1018.5mb 71f 67f
8:50am 4ft 9s 6s 18 20 mph 1018mb 71f 67f
7:50am 4.5ft 9s 6s 4 7 mph 1017.1mb 70f 71f
6:50am 4.5ft 8s 6s 4
mph
1016.4mb 70f 70f
5:50am 5ft 9s 6s 4
mph
1016.4mb 69f 70f
4:50am 5ft 8s 6s 7
mph
1015.7mb 69f 70f
3:50am 5ft 8s 6s 4 7 mph 1015.5mb 69f 69f
2:50am 5.5ft 8s 6s 4
mph
1017.1mb 69f 69f
1:50am 6ft 8s 6s 4 7 mph 1016.7mb 69f 69f
12:50am 6ft 9s 6s 13 18 mph 1016.5mb 69f 70f
Mon 11/24 11:50pm 6ft 9s 6s 7 9 mph 1015.9mb 69f 71f
10:50pm 6ft 8s 6s 7 9 mph 1015.5mb 70f 71f
9:50pm 6ft 8s 6s 11 13 mph 1016.2mb 70f 71f
8:50pm 6.5ft 9s 6s 13
mph
1015.6mb 69f 71f
7:50pm 7ft 10s 6s 16 18 mph 1015.2mb 69f 72f
6:50pm 8ft 8s 6s 16 18 mph 1014.4mb 68f 73f
5:50pm 8ft 9s 6s 18 20 mph 1013.6mb 68f 73f
4:50pm 8.5ft 9s 6s 16 18 mph 1013.2mb 68f 73f
3:50pm 8.5ft 8s 7s 13 16 mph 1012.8mb 68f 73f
2:50pm 8ft 9s 6s 11 13 mph 1012.6mb 68f 73f
1:50pm 9.5ft 10s 7s 13 16 mph 1012.5mb 68f 73f
12:50pm 9ft 10s 7s 13 16 mph 1012.4mb 68f 73f
11:50am 9ft 10s 7s 11 16 mph 1013.2mb 68f 73f
10:50am 8.5ft 10s 7s 11 13 mph 1013.9mb 68f 72f
9:50am 9.5ft 10s 7s 22 29 mph 1013.1mb 68f 74f
8:50am 8.5ft 9s 7s 20 25 mph 1013.1mb 68f 74f
7:50am 9ft 9s 6s 18 22 mph 1012.8mb 68f 73f
6:50am 9ft 10s 6s 18 20 mph 1012.2mb 67f 73f
5:50am 10ft 9s 7s 16 18 mph 1011.7mb 67f 72f
4:50am 9ft 9s 6s 11 13 mph 1011.6mb 67f 71f
3:50am 10ft 9s 7s 9 11 mph 1011mb 67f 70f
2:50am 11ft 9s 7s 11 13 mph 1011.8mb 67f 71f
1:50am 11.5ft 9s 7s 16 18 mph 1011.5mb 67f 70f
12:50am 13ft 9s 8s 16 20 mph 1010.7mb 67f 69f
Sun 11/23 11:50pm 12ft 9s 7s 22 29 mph 1012.2mb 67f 69f